Time;durP1;ratioP1;P1;durP2;ratioP2;P2;SDS_P1;SDS_P2;PMS_P1;PMS_P2;Temp;Humidity;BMP_temperature;BMP_pressure;BME280_temperature;BME280_humidity;BME280_pressure;Samples;Min_cycle;Max_cycle;Signal;HPM_P1;HPM_P2
2023/04/04 00:00:11;;;;;;;1.40;1.30;;;21.50;50.90;;;;;;5019267;28;20443;-77
2023/04/04 00:02:39;;;;;;;1.40;1.30;;;21.50;50.90;;;;;;5037677;28;20446;-76
2023/04/04 00:05:09;;;;;;;1.23;1.00;;;21.50;50.90;;;;;;5036788;28;21082;-77
2023/04/04 00:07:38;;;;;;;1.93;1.40;;;21.50;50.80;;;;;;5037479;28;20449;-76
2023/04/04 00:10:07;;;;;;;1.20;1.10;;;21.50;50.80;;;;;;5037229;28;20519;-77
2023/04/04 00:12:36;;;;;;;1.47;1.37;;;21.50;50.80;;;;;;5037109;28;20545;-78
2023/04/04 00:15:05;;;;;;;1.20;1.20;;;21.50;50.80;;;;;;5028719;28;20457;-77
2023/04/04 00:17:33;;;;;;;1.50;1.40;;;21.50;50.80;;;;;;5023801;28;20824;-76
2023/04/04 00:20:03;;;;;;;1.40;1.30;;;21.50;50.80;;;;;;5036777;28;20569;-76
2023/04/04 00:22:32;;;;;;;1.30;1.30;;;21.50;50.80;;;;;;5019816;28;20812;-76
2023/04/04 00:25:01;;;;;;;1.30;1.20;;;21.50;50.80;;;;;;5036740;28;20440;-76
2023/04/04 00:27:29;;;;;;;1.20;1.10;;;21.50;50.80;;;;;;5036789;28;20473;-79
2023/04/04 00:29:57;;;;;;;2.83;1.23;;;21.50;50.80;;;;;;5018701;28;20460;-77
2023/04/04 00:32:25;;;;;;;1.20;1.20;;;21.50;50.70;;;;;;5029077;28;20447;-80
2023/04/04 00:34:56;;;;;;;1.23;1.23;;;21.40;50.80;;;;;;4999348;28;20489;-77
2023/04/04 00:37:24;;;;;;;2.70;1.00;;;21.40;50.70;;;;;;5020523;28;20545;-78
2023/04/04 00:39:53;;;;;;;1.23;1.13;;;21.40;50.80;;;;;;5015819;28;20541;-79
2023/04/04 00:42:22;;;;;;;1.20;1.10;;;21.40;50.80;;;;;;5034761;28;20461;-77
2023/04/04 00:44:51;;;;;;;1.60;1.50;;;21.40;50.80;;;;;;5018790;28;20545;-76
2023/04/04 00:47:22;;;;;;;1.23;1.13;;;21.40;50.80;;;;;;5033566;28;20981;-76
2023/04/04 00:49:51;;;;;;;1.50;1.40;;;21.40;50.70;;;;;;5015849;28;20453;-76
2023/04/04 00:52:19;;;;;;;1.10;1.00;;;21.40;50.70;;;;;;5033873;28;20478;-77
2023/04/04 00:54:47;;;;;;;1.40;1.30;;;21.40;50.70;;;;;;5015415;28;20466;-77
2023/04/04 00:57:18;;;;;;;1.27;1.00;;;21.40;50.70;;;;;;5033330;28;21008;-77
2023/04/04 00:59:46;;;;;;;1.30;1.20;;;21.40;50.70;;;;;;5032706;28;20443;-76
2023/04/04 01:02:15;;;;;;;1.07;1.00;;;21.40;50.70;;;;;;5021604;28;20467;-76
2023/04/04 01:04:43;;;;;;;1.50;1.40;;;21.40;50.70;;;;;;5021190;28;20510;-76
2023/04/04 01:07:12;;;;;;;1.27;1.17;;;21.40;50.70;;;;;;5033562;28;20452;-76
2023/04/04 01:09:41;;;;;;;1.00;1.00;;;21.40;50.70;;;;;;5015485;28;20930;-76
2023/04/04 01:12:10;;;;;;;1.00;1.00;;;21.40;50.70;;;;;;5015839;28;20507;-76
2023/04/04 01:14:39;;;;;;;2.10;1.20;;;21.40;50.70;;;;;;5032112;28;21022;-76
2023/04/04 01:17:08;;;;;;;1.33;1.23;;;21.40;50.70;;;;;;5032174;28;20461;-77
2023/04/04 01:19:43;;;;;;;1.30;1.20;;;21.40;50.70;;;;;;5015648;28;20462;-77
2023/04/04 01:22:17;;;;;;;1.30;1.20;;;21.40;50.70;;;;;;4996027;28;20455;-79
2023/04/04 01:24:49;;;;;;;1.80;1.30;;;21.40;50.70;;;;;;4996096;28;20455;-76
2023/04/04 01:27:20;;;;;;;1.20;1.10;;;21.40;50.70;;;;;;5006206;28;20979;-77
2023/04/04 01:30:06;;;;;;;1.80;1.13;;;21.40;50.60;;;;;;4994523;28;20466;-77
2023/04/04 01:32:40;;;;;;;1.30;1.20;;;21.40;50.60;;;;;;4995399;28;20467;-78
2023/04/04 01:35:20;;;;;;;1.23;1.13;;;21.30;50.70;;;;;;4995435;28;20503;-76
2023/04/04 01:37:56;;;;;;;1.70;1.40;;;21.30;50.70;;;;;;5027612;28;20953;-76
2023/04/04 01:40:28;;;;;;;1.47;1.20;;;21.30;50.70;;;;;;5015223;28;20449;-76
2023/04/04 01:42:58;;;;;;;3.03;1.17;;;21.30;50.60;;;;;;5012326;28;20456;-76
2023/04/04 01:45:29;;;;;;;1.13;1.10;;;21.30;50.70;;;;;;5012397;28;20513;-78
2023/04/04 01:48:02;;;;;;;1.50;1.40;;;21.30;50.60;;;;;;5014843;28;20468;-76
2023/04/04 01:50:30;;;;;;;1.30;1.00;;;21.30;50.60;;;;;;5000627;28;20489;-76
2023/04/04 01:52:59;;;;;;;1.00;1.00;;;21.30;50.60;;;;;;4999182;28;20516;-76
2023/04/04 01:55:27;;;;;;;0.90;0.90;;;21.30;50.60;;;;;;5032498;28;20467;-76
2023/04/04 01:57:56;;;;;;;1.60;1.30;;;21.30;50.60;;;;;;5032752;28;20441;-76
2023/04/04 02:00:25;;;;;;;1.37;1.10;;;21.30;50.60;;;;;;5013837;28;20519;-76
2023/04/04 02:02:53;;;;;;;1.20;1.20;;;21.30;50.60;;;;;;5032599;28;20487;-77
2023/04/04 02:05:21;;;;;;;1.13;1.10;;;21.30;50.60;;;;;;5032438;28;20439;-76
2023/04/04 02:07:50;;;;;;;2.20;1.60;;;21.30;50.60;;;;;;5013807;28;20454;-79
2023/04/04 02:10:30;;;;;;;1.20;1.20;;;21.30;50.60;;;;;;5007363;28;20568;-76
2023/04/04 02:12:59;;;;;;;1.63;1.53;;;21.30;50.60;;;;;;4995491;28;20498;-76
2023/04/04 02:15:27;;;;;;;1.67;1.57;;;21.30;50.60;;;;;;5001035;28;20527;-76
2023/04/04 02:17:56;;;;;;;1.50;1.40;;;21.30;50.60;;;;;;5031718;28;20450;-76
2023/04/04 02:20:26;;;;;;;1.40;1.30;;;21.30;50.60;;;;;;5032351;28;20434;-77
2023/04/04 02:22:55;;;;;;;1.00;1.00;;;21.30;50.60;;;;;;5031951;28;20441;-76
2023/04/04 02:25:25;;;;;;;1.33;1.10;;;21.30;50.60;;;;;;5030531;28;20451;-81
2023/04/04 02:27:53;;;;;;;1.10;1.10;;;21.30;50.50;;;;;;5025846;28;20535;-85
2023/04/04 02:30:22;;;;;;;1.60;1.10;;;21.30;50.50;;;;;;5005511;28;20512;-80
2023/04/04 02:32:51;;;;;;;1.80;1.37;;;21.30;50.50;;;;;;5014444;28;20461;-76
2023/04/04 02:35:21;;;;;;;1.13;1.10;;;21.30;50.50;;;;;;5013848;28;20477;-76
2023/04/04 02:37:50;;;;;;;1.37;1.27;;;21.30;50.50;;;;;;5027274;28;20471;-76
2023/04/04 02:40:29;;;;;;;1.33;1.03;;;21.30;50.50;;;;;;5014251;28;20884;-77
2023/04/04 02:42:58;;;;;;;1.20;1.10;;;21.30;50.50;;;;;;5014148;28;20553;-78
2023/04/04 02:45:28;;;;;;;1.07;1.07;;;21.30;50.50;;;;;;5013036;28;21006;-77
2023/04/04 02:48:06;;;;;;;1.40;1.30;;;21.30;50.50;;;;;;5008040;28;20811;-77
2023/04/04 02:50:43;;;;;;;1.90;1.30;;;21.30;50.50;;;;;;4994201;28;20453;-80
2023/04/04 02:53:13;;;;;;;1.00;1.00;;;21.30;50.50;;;;;;5001204;28;20520;-78
2023/04/04 02:55:43;;;;;;;1.33;1.23;;;21.20;50.50;;;;;;4994336;28;20483;-76
2023/04/04 02:58:11;;;;;;;1.13;1.07;;;21.30;50.50;;;;;;5010592;28;20490;-79
2023/04/04 03:00:40;;;;;;;1.30;1.20;;;21.30;50.50;;;;;;5014323;28;20561;-77
2023/04/04 03:03:09;;;;;;;1.23;1.07;;;21.20;50.50;;;;;;5003893;28;20743;-76
2023/04/04 03:05:43;;;;;;;1.20;1.10;;;21.20;50.50;;;;;;5013723;28;20469;-82
2023/04/04 03:08:11;;;;;;;1.40;1.30;;;21.20;50.50;;;;;;5013274;28;20442;-76
2023/04/04 03:10:39;;;;;;;1.40;1.30;;;21.20;50.50;;;;;;5031395;28;20443;-76
2023/04/04 03:13:07;;;;;;;1.13;1.03;;;21.20;50.50;;;;;;5027273;28;20516;-81
2023/04/04 03:15:36;;;;;;;1.40;1.13;;;21.20;50.50;;;;;;5030278;28;20512;-76
2023/04/04 03:18:05;;;;;;;1.23;1.07;;;21.20;50.50;;;;;;5014052;28;20794;-78
2023/04/04 03:20:34;;;;;;;0.90;0.87;;;21.20;50.50;;;;;;5013404;28;20470;-76
2023/04/04 03:23:03;;;;;;;1.37;1.27;;;21.20;50.50;;;;;;5013338;28;20545;-84
2023/04/04 03:25:31;;;;;;;4.80;1.53;;;21.20;50.50;;;;;;5031620;28;20455;-76
2023/04/04 03:28:08;;;;;;;1.27;1.10;;;21.20;50.50;;;;;;5013162;28;20462;-79
2023/04/04 03:30:36;;;;;;;1.60;1.10;;;21.20;50.50;;;;;;5030607;28;21446;-78
2023/04/04 03:33:07;;;;;;;1.27;1.23;;;21.20;50.50;;;;;;5029408;28;20964;-76
2023/04/04 03:35:38;;;;;;;0.93;0.93;;;21.20;50.50;;;;;;5013325;28;20484;-76
2023/04/04 03:38:07;;;;;;;1.60;1.50;;;21.20;50.50;;;;;;5013384;28;20463;-80
2023/04/04 03:40:35;;;;;;;1.33;1.27;;;21.20;50.50;;;;;;5013296;28;20463;-77
2023/04/04 03:43:09;;;;;;;1.30;1.20;;;21.20;50.50;;;;;;5012500;28;20547;-82
2023/04/04 03:45:38;;;;;;;1.17;1.07;;;21.20;50.50;;;;;;5030472;28;20532;-77
2023/04/04 03:48:10;;;;;;;1.00;1.00;;;21.20;50.50;;;;;;5012786;28;20458;-81
2023/04/04 03:50:39;;;;;;;0.90;0.90;;;21.20;50.50;;;;;;5012861;28;20465;-77
2023/04/04 03:53:08;;;;;;;1.20;1.10;;;21.20;50.50;;;;;;5007591;28;20478;-77
2023/04/04 03:55:36;;;;;;;1.20;1.10;;;21.20;50.40;;;;;;5015581;28;20584;-76
2023/04/04 03:58:05;;;;;;;1.10;1.00;;;21.20;50.40;;;;;;5013189;28;20499;-77
2023/04/04 04:00:33;;;;;;;1.30;1.20;;;21.20;50.50;;;;;;5029846;28;20482;-76
2023/04/04 04:03:03;;;;;;;0.83;0.83;;;21.20;50.50;;;;;;5012934;28;20461;-76
2023/04/04 04:05:33;;;;;;;1.20;1.10;;;21.20;50.50;;;;;;5030736;28;20437;-80
2023/04/04 04:08:01;;;;;;;1.30;1.20;;;21.10;50.50;;;;;;5013173;28;21027;-77
2023/04/04 04:10:29;;;;;;;1.03;1.03;;;21.10;50.50;;;;;;5030382;28;20445;-76
2023/04/04 04:12:57;;;;;;;2.70;1.20;;;21.10;50.50;;;;;;5030592;28;20450;-77
2023/04/04 04:15:26;;;;;;;0.93;0.90;;;21.10;50.40;;;;;;5012185;28;20882;-76
2023/04/04 04:17:56;;;;;;;1.10;1.00;;;21.10;50.50;;;;;;5013173;28;20460;-76
2023/04/04 04:20:27;;;;;;;1.40;1.30;;;21.10;50.50;;;;;;5012614;28;20477;-79
2023/04/04 04:22:58;;;;;;;1.10;0.80;;;21.10;50.40;;;;;;5014906;28;20465;-77
2023/04/04 04:25:26;;;;;;;1.43;1.30;;;21.10;50.40;;;;;;5016614;28;20461;-77
2023/04/04 04:28:04;;;;;;;1.30;1.20;;;21.10;50.40;;;;;;5016340;28;20457;-79
2023/04/04 04:30:32;;;;;;;1.20;1.20;;;21.10;50.40;;;;;;5009035;28;20594;-76
2023/04/04 04:33:01;;;;;;;1.57;1.47;;;21.10;50.40;;;;;;5016209;28;20453;-77
2023/04/04 04:35:36;;;;;;;1.23;1.20;;;21.10;50.40;;;;;;5016210;28;20482;-76
2023/04/04 04:38:06;;;;;;;1.50;1.23;;;21.10;50.40;;;;;;5016674;28;20470;-77
2023/04/04 04:40:36;;;;;;;1.30;1.20;;;21.10;50.40;;;;;;5016234;28;20454;-77
2023/04/04 04:43:11;;;;;;;2.10;1.23;;;21.10;50.40;;;;;;5015191;28;20449;-80
2023/04/04 04:45:41;;;;;;;0.93;0.80;;;21.10;50.40;;;;;;5033209;28;20538;-76
2023/04/04 04:48:11;;;;;;;1.13;1.07;;;21.10;50.40;;;;;;5012891;28;21007;-76
2023/04/04 04:50:47;;;;;;;1.17;1.13;;;21.10;50.40;;;;;;4996456;28;20529;-78
2023/04/04 04:53:24;;;;;;;1.50;1.40;;;21.10;50.40;;;;;;5002104;28;20469;-77
2023/04/04 04:55:52;;;;;;;0.93;0.80;;;21.10;50.40;;;;;;4983253;28;20471;-79
2023/04/04 04:58:22;;;;;;;1.13;1.00;;;21.10;50.40;;;;;;5005548;28;20469;-77
2023/04/04 05:00:56;;;;;;;0.90;0.90;;;21.10;50.40;;;;;;4975491;28;20468;-77
2023/04/04 05:03:33;;;;;;;1.50;1.03;;;21.10;50.30;;;;;;4992388;28;20463;-77
2023/04/04 05:06:05;;;;;;;1.43;0.77;;;21.10;50.40;;;;;;5009306;28;20486;-79
2023/04/04 05:08:35;;;;;;;1.20;1.10;;;21.10;50.40;;;;;;4992703;28;20464;-80
2023/04/04 05:11:11;;;;;;;1.03;1.00;;;21.10;50.40;;;;;;4989491;28;20471;-76
2023/04/04 05:13:40;;;;;;;1.10;0.93;;;21.10;50.40;;;;;;5002225;28;20470;-77
2023/04/04 05:16:08;;;;;;;1.40;1.30;;;21.10;50.30;;;;;;5009461;28;20483;-77
2023/04/04 05:18:37;;;;;;;1.50;1.40;;;21.10;50.30;;;;;;4996350;28;20475;-77
2023/04/04 05:21:09;;;;;;;1.20;1.20;;;21.10;50.30;;;;;;4992980;28;20465;-77
2023/04/04 05:23:39;;;;;;;1.07;1.00;;;21.10;50.30;;;;;;4993688;28;20445;-77
2023/04/04 05:26:08;;;;;;;1.03;0.80;;;21.10;50.30;;;;;;4992357;28;20981;-77
2023/04/04 05:28:40;;;;;;;1.63;1.50;;;21.10;50.30;;;;;;4991334;28;20473;-82
2023/04/04 05:31:08;;;;;;;1.03;1.00;;;21.10;50.30;;;;;;4991760;28;20467;-79
2023/04/04 05:33:37;;;;;;;1.47;1.37;;;21.10;50.30;;;;;;4991094;28;20505;-77
2023/04/04 05:36:16;;;;;;;1.27;1.17;;;21.10;50.30;;;;;;4992219;28;20537;-78
2023/04/04 05:38:52;;;;;;;1.20;1.10;;;21.10;50.30;;;;;;4985749;28;20865;-77
2023/04/04 05:41:23;;;;;;;1.37;1.27;;;21.10;50.30;;;;;;4992210;28;20467;-77
2023/04/04 05:43:55;;;;;;;1.70;1.20;;;21.10;50.30;;;;;;4991239;28;20470;-78
2023/04/04 05:46:25;;;;;;;1.67;1.30;;;21.10;50.20;;;;;;4993542;28;20837;-77
2023/04/04 05:48:54;;;;;;;0.97;0.90;;;21.10;50.20;;;;;;5008514;28;20528;-77
2023/04/04 05:51:23;;;;;;;0.90;0.90;;;21.10;50.20;;;;;;5008631;28;20498;-77
2023/04/04 05:54:06;;;;;;;1.20;1.10;;;21.10;50.20;;;;;;5009546;28;20461;-76
2023/04/04 05:56:36;;;;;;;1.10;1.10;;;21.10;50.20;;;;;;5011470;28;20505;-77
2023/04/04 05:59:08;;;;;;;0.87;0.80;;;21.10;50.20;;;;;;5010937;28;20470;-78
2023/04/04 06:01:47;;;;;;;1.10;1.10;;;21.10;50.20;;;;;;5009392;28;20978;-76
2023/04/04 06:04:15;;;;;;;1.30;1.00;;;21.10;50.20;;;;;;5010163;28;20820;-77
2023/04/04 06:06:45;;;;;;;1.33;1.23;;;21.10;50.20;;;;;;5011503;28;20459;-77
2023/04/04 06:09:15;;;;;;;1.30;1.17;;;21.10;50.20;;;;;;5010919;28;20457;-77
2023/04/04 06:11:44;;;;;;;1.43;1.33;;;21.10;50.20;;;;;;5011305;28;20462;-77
2023/04/04 06:14:13;;;;;;;1.33;1.27;;;21.10;50.20;;;;;;5010797;28;20482;-76
2023/04/04 06:16:43;;;;;;;1.20;1.20;;;21.10;50.20;;;;;;5011479;28;20515;-76
2023/04/04 06:19:12;;;;;;;1.53;1.40;;;21.20;50.20;;;;;;5011226;28;20500;-77
2023/04/04 06:21:41;;;;;;;1.33;1.23;;;21.20;50.20;;;;;;5012806;28;20530;-77
2023/04/04 06:24:11;;;;;;;0.90;0.90;;;21.20;50.20;;;;;;4993569;28;20554;-76
2023/04/04 06:26:41;;;;;;;1.30;1.20;;;21.20;50.20;;;;;;5011081;28;20497;-77
2023/04/04 06:29:09;;;;;;;1.17;1.07;;;21.20;50.20;;;;;;5011797;28;20494;-77
2023/04/04 06:31:39;;;;;;;1.00;1.00;;;21.20;50.20;;;;;;5007655;28;20558;-76
2023/04/04 06:34:16;;;;;;;1.40;1.30;;;21.20;50.20;;;;;;5010688;28;20495;-76
2023/04/04 06:37:10;;;;;;;0.90;0.90;;;21.20;50.10;;;;;;5009279;28;20472;-76
2023/04/04 06:39:50;;;;;;;1.23;1.13;;;21.20;50.10;;;;;;5001789;28;20477;-76
2023/04/04 06:42:24;;;;;;;1.93;1.00;;;21.20;50.10;;;;;;5010371;28;20838;-79
2023/04/04 06:44:53;;;;;;;1.10;1.10;;;21.20;50.10;;;;;;5002349;28;20479;-77
2023/04/04 06:47:21;;;;;;;1.37;1.20;;;21.20;50.10;;;;;;5003374;28;20877;-77
2023/04/04 06:49:49;;;;;;;1.77;1.47;;;21.20;50.10;;;;;;5006853;28;20459;-76
2023/04/04 06:52:18;;;;;;;2.10;1.10;;;21.20;50.10;;;;;;5012844;28;20490;-77
2023/04/04 06:54:46;;;;;;;1.30;1.20;;;21.20;50.10;;;;;;5023879;28;20488;-80
2023/04/04 06:57:15;;;;;;;1.13;1.13;;;21.20;50.00;;;;;;5024861;28;20474;-77
2023/04/04 06:59:45;;;;;;;1.40;1.30;;;21.30;50.00;;;;;;5029660;28;20792;-76
2023/04/04 07:02:13;;;;;;;0.90;0.90;;;21.30;50.00;;;;;;5030552;28;20543;-76
2023/04/04 07:04:41;;;;;;;0.97;0.97;;;21.30;50.00;;;;;;5030338;28;20450;-76
2023/04/04 07:07:09;;;;;;;1.20;1.10;;;21.30;50.00;;;;;;5031516;28;20525;-77
2023/04/04 07:09:38;;;;;;;1.20;1.10;;;21.30;50.00;;;;;;5027201;28;20560;-76
2023/04/04 07:12:06;;;;;;;1.93;1.00;;;21.30;50.00;;;;;;5029884;28;20486;-79
2023/04/04 07:14:35;;;;;;;0.83;0.83;;;21.30;50.00;;;;;;5028222;28;20465;-77
2023/04/04 07:17:06;;;;;;;0.80;0.80;;;21.30;50.00;;;;;;5028068;28;20572;-80
2023/04/04 07:19:51;;;;;;;1.10;1.10;;;21.30;49.90;;;;;;5019157;28;20454;-76
2023/04/04 07:22:19;;;;;;;1.90;1.20;;;21.30;49.90;;;;;;5013318;28;20464;-77
2023/04/04 07:24:48;;;;;;;1.00;1.00;;;21.30;49.90;;;;;;5029693;28;20511;-76
2023/04/04 07:27:16;;;;;;;1.50;1.37;;;21.30;49.90;;;;;;5030634;28;20930;-76
2023/04/04 07:29:44;;;;;;;0.97;0.97;;;21.30;49.90;;;;;;5030248;28;20549;-76
2023/04/04 07:32:14;;;;;;;1.30;1.20;;;21.40;49.90;;;;;;5029488;28;20482;-79
2023/04/04 07:34:43;;;;;;;0.93;0.90;;;21.40;49.90;;;;;;5027873;28;20826;-78
2023/04/04 07:37:11;;;;;;;0.90;0.90;;;21.40;49.90;;;;;;5031325;28;20573;-76
2023/04/04 07:39:40;;;;;;;1.37;1.27;;;21.40;49.90;;;;;;5030739;28;20791;-78
2023/04/04 07:42:08;;;;;;;1.20;1.10;;;21.40;49.90;;;;;;5030453;28;20460;-82
2023/04/04 07:44:37;;;;;;;2.07;1.40;;;21.40;49.90;;;;;;5029284;28;20507;-76
2023/04/04 07:47:05;;;;;;;1.40;1.30;;;21.40;49.90;;;;;;5030084;28;20831;-77
2023/04/04 07:49:38;;;;;;;3.30;1.20;;;21.40;49.90;;;;;;5028740;28;20441;-76
2023/04/04 07:52:07;;;;;;;1.03;1.03;;;21.40;49.80;;;;;;5021038;28;20496;-80
2023/04/04 07:54:36;;;;;;;1.30;1.20;;;21.40;49.90;;;;;;5030467;28;21040;-77
2023/04/04 07:57:04;;;;;;;1.33;1.23;;;21.40;49.90;;;;;;5033009;28;20584;-80
2023/04/04 07:59:35;;;;;;;1.30;1.20;;;21.40;49.80;;;;;;5033993;28;20454;-76
2023/04/04 08:02:04;;;;;;;1.33;1.23;;;21.40;49.80;;;;;;5016988;28;20473;-78
2023/04/04 08:04:32;;;;;;;1.40;1.30;;;21.40;49.80;;;;;;5032305;28;20453;-76
2023/04/04 08:07:01;;;;;;;1.70;1.10;;;21.40;49.80;;;;;;5035191;28;20437;-76
2023/04/04 08:09:33;;;;;;;1.40;1.30;;;21.50;49.80;;;;;;5034411;28;20440;-77
2023/04/04 08:12:02;;;;;;;1.10;1.10;;;21.40;49.80;;;;;;5034474;28;20446;-82
2023/04/04 08:14:30;;;;;;;1.20;1.10;;;21.50;49.80;;;;;;5034103;28;20431;-76
2023/04/04 08:16:58;;;;;;;1.20;1.10;;;21.50;49.80;;;;;;5034498;28;20450;-77
2023/04/04 08:19:26;;;;;;;1.33;1.23;;;21.50;49.80;;;;;;5034455;28;20465;-76
2023/04/04 08:21:54;;;;;;;1.27;1.20;;;21.50;49.80;;;;;;5034638;28;20466;-76
2023/04/04 08:24:24;;;;;;;1.27;1.17;;;21.50;49.80;;;;;;5033977;28;20429;-77
2023/04/04 08:26:55;;;;;;;1.10;1.00;;;21.50;49.70;;;;;;5034761;28;20500;-76
2023/04/04 08:29:33;;;;;;;1.30;1.20;;;21.50;49.70;;;;;;5033126;28;20787;-76
2023/04/04 08:32:01;;;;;;;2.40;1.30;;;21.50;49.70;;;;;;5033509;28;20458;-76
2023/04/04 08:34:29;;;;;;;1.60;1.50;;;21.50;49.70;;;;;;5030901;28;20541;-77
2023/04/04 08:36:58;;;;;;;1.60;1.50;;;21.50;49.70;;;;;;5013997;28;20498;-76
2023/04/04 08:39:28;;;;;;;1.40;1.30;;;21.50;49.60;;;;;;5025478;28;20430;-76
2023/04/04 08:42:04;;;;;;;1.23;1.20;;;21.50;49.60;;;;;;5034178;28;20456;-77
2023/04/04 08:44:33;;;;;;;1.27;1.17;;;21.50;49.60;;;;;;5032816;28;20520;-76
2023/04/04 08:47:05;;;;;;;1.67;1.30;;;21.60;49.60;;;;;;5033558;28;20876;-77
2023/04/04 08:49:37;;;;;;;1.30;1.20;;;21.60;49.60;;;;;;5030913;28;20514;-77
2023/04/04 08:52:06;;;;;;;1.00;1.00;;;21.60;49.60;;;;;;5032615;28;20486;-77
2023/04/04 08:54:38;;;;;;;1.00;1.00;;;21.60;49.60;;;;;;5033321;28;20446;-77
2023/04/04 08:57:07;;;;;;;2.00;1.17;;;21.60;49.60;;;;;;5033908;28;20513;-78
2023/04/04 08:59:35;;;;;;;1.37;1.27;;;21.60;49.50;;;;;;5032785;28;20449;-76
2023/04/04 09:02:15;;;;;;;1.03;1.00;;;21.60;49.50;;;;;;5031127;28;20461;-79
2023/04/04 09:04:45;;;;;;;1.53;1.40;;;21.60;49.50;;;;;;5033662;28;20496;-77
2023/04/04 09:07:31;;;;;;;1.30;1.30;;;21.60;49.50;;;;;;5033270;28;20819;-78
2023/04/04 09:10:01;;;;;;;1.13;1.13;;;21.60;49.50;;;;;;5004986;28;20827;-76
2023/04/04 09:12:32;;;;;;;1.00;1.00;;;21.70;49.50;;;;;;5033638;28;20914;-78
2023/04/04 09:15:02;;;;;;;1.80;1.70;;;21.70;49.30;;;;;;5032523;28;20793;-80
2023/04/04 09:17:30;;;;;;;1.30;1.20;;;21.70;49.30;;;;;;5032439;28;20481;-76
2023/04/04 09:20:03;;;;;;;1.50;1.40;;;21.70;49.30;;;;;;5017397;28;20443;-77
2023/04/04 09:22:31;;;;;;;1.30;1.20;;;21.70;49.20;;;;;;5015470;28;20437;-76
2023/04/04 09:25:01;;;;;;;1.33;1.30;;;21.70;49.20;;;;;;5033004;28;20451;-79
2023/04/04 09:27:29;;;;;;;0.97;0.93;;;21.70;49.20;;;;;;5033643;28;20427;-76
2023/04/04 09:30:02;;;;;;;1.00;0.97;;;21.70;49.20;;;;;;5031519;28;20913;-78
2023/04/04 09:32:33;;;;;;;2.17;1.10;;;21.80;49.20;;;;;;5032098;28;20497;-76
2023/04/04 09:35:02;;;;;;;1.53;1.30;;;21.80;49.10;;;;;;5031226;28;20447;-76
2023/04/04 09:37:30;;;;;;;1.00;1.00;;;21.80;49.10;;;;;;5026666;28;20550;-77
2023/04/04 09:39:59;;;;;;;2.23;1.63;;;21.80;49.00;;;;;;5014644;28;20827;-76
2023/04/04 09:42:28;;;;;;;1.53;1.43;;;21.80;49.00;;;;;;5032621;28;20462;-77
2023/04/04 09:44:57;;;;;;;1.80;1.37;;;21.80;49.00;;;;;;5031771;28;20456;-76
2023/04/04 09:47:26;;;;;;;1.30;1.20;;;21.80;48.90;;;;;;5033000;28;20450;-76
2023/04/04 09:49:59;;;;;;;1.17;1.10;;;21.90;48.90;;;;;;5014579;28;20469;-77
2023/04/04 09:52:34;;;;;;;1.30;1.20;;;21.90;48.90;;;;;;5032500;28;20486;-81
2023/04/04 09:55:04;;;;;;;2.13;1.27;;;21.90;48.90;;;;;;5031490;28;20443;-77
2023/04/04 09:57:36;;;;;;;1.20;1.10;;;21.90;48.80;;;;;;5032419;28;20434;-77
2023/04/04 10:00:08;;;;;;;1.30;1.17;;;21.90;48.80;;;;;;5013772;28;20529;-77
2023/04/04 10:02:38;;;;;;;1.13;1.10;;;21.90;48.80;;;;;;5033090;28;20820;-77
2023/04/04 10:05:09;;;;;;;1.40;1.30;;;22.00;48.80;;;;;;5032260;28;20442;-77
2023/04/04 10:07:41;;;;;;;1.70;1.43;;;22.00;48.80;;;;;;5032548;28;20465;-76
2023/04/04 10:10:10;;;;;;;1.30;1.20;;;22.00;48.70;;;;;;5029635;28;20495;-78
2023/04/04 10:12:40;;;;;;;1.10;1.10;;;22.00;48.70;;;;;;5028424;28;20813;-77
2023/04/04 10:15:09;;;;;;;1.43;1.33;;;22.00;48.70;;;;;;5013784;28;20927;-76
2023/04/04 10:17:39;;;;;;;1.20;1.10;;;22.00;48.70;;;;;;5032636;28;20450;-77
2023/04/04 10:20:09;;;;;;;1.30;1.07;;;22.00;48.60;;;;;;5031664;28;20479;-77
2023/04/04 10:22:38;;;;;;;1.10;1.00;;;22.00;48.60;;;;;;5031854;28;20910;-77
2023/04/04 10:25:09;;;;;;;1.03;1.03;;;22.00;48.60;;;;;;5032008;28;20435;-77
2023/04/04 10:27:39;;;;;;;1.40;1.30;;;22.10;48.60;;;;;;5031421;28;20538;-82
2023/04/04 10:30:09;;;;;;;1.77;1.50;;;22.10;48.60;;;;;;5031677;28;20983;-77
2023/04/04 10:32:46;;;;;;;1.40;1.30;;;22.10;48.60;;;;;;5031019;28;20546;-77
2023/04/04 10:35:16;;;;;;;1.50;1.33;;;22.10;48.50;;;;;;5030933;28;20431;-79
2023/04/04 10:37:50;;;;;;;2.00;1.20;;;22.10;48.50;;;;;;5032002;28;20444;-81
2023/04/04 10:40:21;;;;;;;1.50;1.40;;;22.10;48.50;;;;;;5013236;28;20878;-76
2023/04/04 10:42:51;;;;;;;1.50;1.40;;;22.10;48.50;;;;;;5031205;28;20546;-77
2023/04/04 10:45:20;;;;;;;1.13;1.13;;;22.10;48.50;;;;;;5031038;28;20522;-80
2023/04/04 10:47:50;;;;;;;1.47;1.30;;;22.20;48.40;;;;;;5032075;28;20464;-78
2023/04/04 10:50:20;;;;;;;1.60;1.50;;;22.20;48.40;;;;;;5031431;28;21314;-77
2023/04/04 10:52:50;;;;;;;1.20;1.20;;;22.20;48.40;;;;;;5031651;28;20575;-77
2023/04/04 10:55:19;;;;;;;1.70;1.60;;;22.20;48.30;;;;;;5031434;28;20958;-77
2023/04/04 10:57:51;;;;;;;1.20;1.13;;;22.20;48.30;;;;;;5031234;28;20429;-76
2023/04/04 11:00:23;;;;;;;1.33;1.20;;;22.30;48.20;;;;;;5028521;28;20471;-77
2023/04/04 11:02:55;;;;;;;1.60;1.50;;;22.30;48.20;;;;;;5012111;28;20459;-78
2023/04/04 11:05:26;;;;;;;1.97;1.40;;;22.30;48.20;;;;;;5011491;28;20438;-79
2023/04/04 11:07:58;;;;;;;1.07;1.07;;;22.40;48.00;;;;;;5011564;28;20433;-76
2023/04/04 11:10:30;;;;;;;1.67;1.57;;;22.50;47.80;;;;;;5027657;28;20470;-76
2023/04/04 11:13:06;;;;;;;1.90;1.53;;;22.50;47.80;;;;;;5031099;28;20432;-77
2023/04/04 11:15:55;;;;;;;1.37;1.27;;;22.60;47.80;;;;;;5030724;28;20452;-78
2023/04/04 11:18:47;;;;;;;1.80;1.60;;;22.80;47.30;;;;;;5030617;28;20462;-77
2023/04/04 11:21:18;;;;;;;2.20;1.50;;;23.00;46.80;;;;;;5011228;28;20426;-77
2023/04/04 11:24:15;;;;;;;1.43;1.33;;;23.00;46.80;;;;;;5011201;28;20425;-76
2023/04/04 11:26:46;;;;;;;1.47;1.37;;;23.00;46.80;;;;;;5015925;28;20461;-80
2023/04/04 11:29:22;;;;;;;1.60;1.50;;;22.90;46.90;;;;;;5029893;28;20535;-80
2023/04/04 11:31:52;;;;;;;1.03;1.00;;;22.90;47.00;;;;;;5030672;28;20442;-80
2023/04/04 11:34:31;;;;;;;1.60;1.50;;;23.00;47.00;;;;;;5030585;28;20785;-78
2023/04/04 11:37:14;;;;;;;1.43;1.33;;;23.20;46.80;;;;;;5031247;28;20436;-76
2023/04/04 11:39:55;;;;;;;1.33;1.23;;;23.20;46.60;;;;;;5029243;28;20508;-77
2023/04/04 11:42:23;;;;;;;1.20;1.10;;;23.40;46.60;;;;;;5030869;28;20455;-77
2023/04/04 11:45:05;;;;;;;1.23;1.20;;;23.50;46.20;;;;;;5029903;28;20545;-78
2023/04/04 11:47:36;;;;;;;0.90;0.90;;;23.70;45.90;;;;;;5013129;28;20797;-81
2023/04/04 11:50:09;;;;;;;1.83;1.53;;;23.80;45.70;;;;;;5030838;28;20444;-80
2023/04/04 11:52:42;;;;;;;1.30;1.20;;;23.90;45.50;;;;;;5029664;28;20490;-80
2023/04/04 11:55:21;;;;;;;1.60;1.30;;;24.00;45.30;;;;;;5030197;28;20453;-77
2023/04/04 11:57:50;;;;;;;2.10;1.10;;;24.10;45.20;;;;;;5031261;28;20939;-77
2023/04/04 12:00:36;;;;;;;1.97;1.43;;;24.10;45.10;;;;;;5029511;28;20566;-76
2023/04/04 12:03:07;;;;;;;1.50;1.40;;;24.10;45.10;;;;;;5028572;28;20557;-78
2023/04/04 12:05:35;;;;;;;0.97;0.97;;;24.10;45.00;;;;;;5013209;28;20463;-78
2023/04/04 12:08:04;;;;;;;1.83;1.67;;;24.20;44.90;;;;;;5010962;28;20900;-80
2023/04/04 12:10:35;;;;;;;1.60;1.30;;;24.10;44.90;;;;;;5006315;28;20842;-76
2023/04/04 12:13:07;;;;;;;3.07;1.30;;;24.00;45.10;;;;;;5011637;28;20612;-77
2023/04/04 12:15:35;;;;;;;1.13;1.03;;;23.90;45.30;;;;;;5010457;28;20465;-77
2023/04/04 12:18:09;;;;;;;1.37;1.23;;;24.00;45.40;;;;;;4993241;28;20463;-77
2023/04/04 12:20:40;;;;;;;1.50;1.40;;;24.00;45.30;;;;;;5028427;28;20479;-76
2023/04/04 12:23:09;;;;;;;1.93;1.40;;;24.00;45.30;;;;;;5030397;28;20561;-76
2023/04/04 12:25:38;;;;;;;1.30;1.20;;;23.80;45.40;;;;;;5029966;28;20452;-77
2023/04/04 12:28:08;;;;;;;1.90;1.50;;;23.80;45.70;;;;;;5030158;28;20831;-81
2023/04/04 12:30:36;;;;;;;1.43;1.33;;;23.70;45.70;;;;;;5030462;28;20560;-76
2023/04/04 12:33:05;;;;;;;1.37;1.20;;;23.70;46.00;;;;;;5028552;28;20668;-80
2023/04/04 12:35:35;;;;;;;1.50;1.40;;;23.70;46.00;;;;;;5028484;28;20980;-81
2023/04/04 12:38:06;;;;;;;1.47;1.37;;;23.70;46.10;;;;;;5028874;28;20920;-76
2023/04/04 12:40:36;;;;;;;1.50;1.40;;;23.90;45.70;;;;;;4996130;28;20485;-80
2023/04/04 12:43:06;;;;;;;1.47;1.37;;;24.00;45.50;;;;;;5011528;28;20937;-76
2023/04/04 12:45:38;;;;;;;1.83;1.43;;;24.10;45.40;;;;;;5014061;28;20540;-76
2023/04/04 12:48:13;;;;;;;1.20;1.13;;;24.20;45.30;;;;;;5014357;28;20485;-78
2023/04/04 12:50:54;;;;;;;1.73;1.33;;;24.20;45.20;;;;;;5031474;28;20491;-80
2023/04/04 12:53:23;;;;;;;1.37;1.27;;;24.30;45.00;;;;;;5033574;28;20534;-79
2023/04/04 12:56:11;;;;;;;1.50;1.40;;;24.40;44.90;;;;;;5033324;28;20458;-78
2023/04/04 12:58:40;;;;;;;1.47;1.33;;;24.40;45.00;;;;;;5033305;28;20434;-77
2023/04/04 13:01:09;;;;;;;1.50;1.40;;;24.40;45.00;;;;;;5033735;28;20467;-77
2023/04/04 13:03:38;;;;;;;1.50;1.40;;;24.40;44.90;;;;;;5032826;28;20972;-76
2023/04/04 13:06:13;;;;;;;1.60;1.50;;;24.40;45.00;;;;;;5034066;28;20499;-77